createdAt,value
2019-02-18T00:03:09.589Z,47.00
2019-02-18T00:08:19.572Z,46.90
2019-02-18T00:13:25.516Z,46.80
2019-02-18T00:18:31.024Z,46.80
2019-02-18T00:23:36.847Z,46.90
2019-02-18T00:28:43.040Z,46.80
2019-02-18T00:33:49.828Z,46.80
2019-02-18T00:38:57.223Z,46.80
2019-02-18T00:44:05.410Z,46.80
2019-02-18T00:49:12.420Z,46.80
2019-02-18T00:54:18.868Z,46.70
2019-02-18T00:59:24.360Z,46.70
2019-02-18T01:04:31.159Z,46.80
2019-02-18T01:09:37.366Z,46.70
2019-02-18T01:14:44.792Z,46.70
2019-02-18T01:19:50.841Z,46.70
2019-02-18T01:24:57.676Z,46.70
2019-02-18T01:30:04.428Z,46.80
2019-02-18T01:35:10.955Z,46.80
2019-02-18T01:40:16.499Z,46.70
2019-02-18T01:45:26.682Z,46.80
2019-02-18T01:50:33.616Z,46.60
2019-02-18T01:55:43.907Z,46.60
2019-02-18T02:00:50.186Z,46.60
2019-02-18T02:05:57.199Z,46.60
2019-02-18T02:11:03.471Z,46.60
2019-02-18T02:16:13.073Z,46.60
2019-02-18T02:21:18.766Z,46.60
2019-02-18T02:26:25.594Z,46.60
2019-02-18T02:31:34.973Z,46.60
2019-02-18T02:36:40.468Z,46.70
2019-02-18T02:41:47.684Z,46.10
2019-02-18T02:46:54.475Z,46.70
2019-02-18T02:51:59.392Z,46.70
2019-02-18T02:57:05.716Z,46.70
2019-02-18T03:02:12.598Z,46.70
2019-02-18T03:07:18.499Z,46.70
2019-02-18T03:12:24.471Z,46.60
2019-02-18T03:17:30.233Z,46.70
2019-02-18T03:22:36.419Z,46.70
2019-02-18T03:27:41.988Z,46.70
2019-02-18T03:33:02.771Z,46.70
2019-02-18T03:38:08.094Z,46.70
2019-02-18T03:43:14.276Z,46.70
2019-02-18T03:48:19.758Z,46.70
2019-02-18T03:53:27.296Z,46.70
2019-02-18T03:58:33.534Z,46.70
2019-02-18T04:03:41.379Z,46.70
2019-02-18T04:08:47.868Z,46.80
2019-02-18T04:13:54.304Z,46.70
2019-02-18T04:19:01.140Z,46.70
2019-02-18T04:24:08.353Z,46.70
2019-02-18T04:29:13.736Z,46.70
2019-02-18T04:34:21.539Z,46.70
2019-02-18T04:39:28.693Z,47.00
2019-02-18T04:44:35.242Z,46.70
2019-02-18T04:49:42.735Z,46.80
2019-02-18T04:54:50.098Z,46.70
2019-02-18T04:59:55.921Z,46.70
2019-02-18T05:05:02.533Z,46.70
2019-02-18T05:10:09.729Z,46.70
2019-02-18T05:15:17.005Z,46.80
2019-02-18T05:20:23.827Z,46.70
2019-02-18T05:25:30.260Z,46.70
2019-02-18T05:30:36.078Z,46.70
2019-02-18T05:35:42.350Z,46.70
2019-02-18T05:40:48.760Z,46.70
2019-02-18T05:45:55.731Z,46.60
2019-02-18T05:51:04.626Z,46.60
2019-02-18T05:56:10.888Z,46.60
2019-02-18T06:01:18.872Z,46.60
2019-02-18T06:06:25.196Z,46.60
2019-02-18T06:11:33.084Z,46.70
2019-02-18T06:16:40.090Z,46.70
2019-02-18T06:21:47.234Z,46.70
2019-02-18T06:26:55.443Z,46.60
2019-02-18T06:32:01.056Z,46.60
2019-02-18T06:37:08.722Z,46.60
2019-02-18T06:42:16.600Z,46.70
2019-02-18T06:47:25.369Z,46.70
2019-02-18T06:52:32.711Z,46.60
2019-02-18T06:58:00.664Z,46.60
2019-02-18T07:03:24.824Z,47.30
2019-02-18T07:08:44.880Z,46.50
2019-02-18T07:13:51.418Z,46.60
2019-02-18T07:18:59.184Z,46.60
2019-02-18T07:24:06.493Z,46.60
2019-02-18T07:29:12.848Z,46.50
2019-02-18T07:34:18.622Z,46.60
2019-02-18T07:39:25.346Z,47.20
2019-02-18T07:44:31.287Z,46.70
2019-02-18T07:49:39.066Z,46.70
2019-02-18T07:54:45.381Z,46.70
2019-02-18T07:59:51.391Z,46.70
2019-02-18T08:04:56.918Z,46.80
2019-02-18T08:10:11.442Z,47.60
2019-02-18T08:15:09.822Z,46.80
2019-02-18T08:20:18.393Z,46.90
2019-02-18T08:25:25.952Z,47.50
2019-02-18T08:30:33.182Z,47.00
2019-02-18T08:35:39.016Z,47.10
2019-02-18T08:40:45.609Z,47.10
2019-02-18T08:45:52.394Z,47.10
2019-02-18T08:50:57.813Z,47.20
2019-02-18T08:56:04.187Z,47.20
2019-02-18T09:01:11.735Z,47.10
2019-02-18T09:06:18.355Z,47.10
2019-02-18T09:11:25.414Z,47.10
2019-02-18T09:16:31.803Z,47.20
2019-02-18T09:21:37.477Z,47.20
2019-02-18T09:26:43.706Z,47.30
2019-02-18T09:31:49.993Z,47.90
2019-02-18T09:36:56.376Z,47.20
2019-02-18T09:42:03.543Z,47.20
2019-02-18T09:47:09.913Z,46.40
2019-02-18T09:52:16.570Z,46.50
2019-02-18T09:57:22.700Z,46.50
2019-02-18T10:02:28.473Z,46.50
2019-02-18T10:07:34.186Z,46.60
2019-02-18T10:12:40.655Z,46.60
2019-02-18T10:17:48.049Z,46.60
2019-02-18T10:22:55.374Z,46.60
2019-02-18T10:28:04.361Z,46.60
2019-02-18T10:33:09.426Z,46.50
2019-02-18T10:38:15.446Z,46.60
2019-02-18T10:43:32.193Z,46.60
2019-02-18T10:48:30.788Z,46.50
2019-02-18T10:53:37.901Z,46.50
2019-02-18T10:58:43.302Z,46.50
2019-02-18T11:03:48.727Z,46.60
2019-02-18T11:08:55.093Z,46.60
2019-02-18T11:14:00.802Z,46.60
2019-02-18T11:19:08.299Z,46.50
2019-02-18T11:24:16.569Z,46.60
2019-02-18T11:29:23.285Z,46.60
2019-02-18T11:34:29.453Z,46.40
2019-02-18T11:39:35.592Z,46.60
2019-02-18T11:44:43.118Z,46.50
2019-02-18T11:49:49.196Z,46.60
2019-02-18T11:54:56.202Z,46.50
2019-02-18T12:00:03.768Z,46.50
2019-02-18T12:05:11.240Z,46.50
2019-02-18T12:10:17.088Z,46.50
2019-02-18T12:15:24.152Z,46.50
2019-02-18T12:20:29.594Z,46.50
2019-02-18T12:25:35.665Z,46.50
2019-02-18T12:30:42.024Z,46.50
2019-02-18T12:35:48.401Z,46.50
2019-02-18T12:40:54.338Z,46.40
2019-02-18T12:46:00.679Z,46.30
2019-02-18T12:51:06.962Z,46.30
2019-02-18T12:56:13.294Z,46.80
2019-02-18T13:01:19.381Z,46.40
2019-02-18T13:06:25.397Z,46.30
2019-02-18T13:11:30.724Z,46.30
2019-02-18T13:16:36.469Z,45.90
2019-02-18T13:21:41.700Z,45.90
2019-02-18T13:26:48.284Z,45.90
2019-02-18T13:31:55.138Z,45.90
2019-02-18T13:37:00.311Z,46.00
2019-02-18T13:42:07.604Z,46.00
2019-02-18T13:47:15.215Z,45.80
2019-02-18T13:52:21.661Z,45.80
2019-02-18T13:57:27.717Z,45.80
2019-02-18T14:02:33.871Z,45.70
2019-02-18T14:07:42.352Z,45.70
2019-02-18T14:12:48.685Z,45.60
2019-02-18T14:17:54.449Z,45.60
2019-02-18T14:23:01.872Z,45.50
2019-02-18T14:28:07.389Z,45.50
2019-02-18T14:33:13.399Z,45.60
2019-02-18T14:38:19.421Z,45.40
2019-02-18T14:43:25.414Z,45.30
2019-02-18T14:48:31.505Z,45.30
2019-02-18T14:53:37.967Z,45.30
2019-02-18T14:58:44.695Z,45.20
2019-02-18T15:03:52.222Z,45.10
2019-02-18T15:08:58.220Z,45.30
2019-02-18T15:14:04.925Z,45.00
2019-02-18T15:19:10.780Z,45.00
2019-02-18T15:24:17.262Z,44.90
2019-02-18T15:29:24.532Z,44.90
2019-02-18T15:34:30.482Z,44.80
2019-02-18T15:39:53.530Z,44.90
2019-02-18T15:45:00.601Z,44.80
2019-02-18T15:50:07.223Z,44.80
2019-02-18T15:55:13.584Z,44.80
2019-02-18T16:00:22.459Z,44.80
2019-02-18T16:05:29.378Z,44.80
2019-02-18T16:10:36.305Z,44.90
2019-02-18T16:15:43.069Z,44.80
2019-02-18T16:20:49.169Z,44.80
2019-02-18T16:25:56.065Z,44.80
2019-02-18T16:31:03.156Z,44.90
2019-02-18T16:36:10.105Z,44.90
2019-02-18T16:41:15.969Z,44.90
2019-02-18T16:46:22.276Z,45.00
2019-02-18T16:51:29.521Z,45.10
2019-02-18T16:56:35.488Z,45.20
2019-02-18T17:01:41.249Z,45.10
2019-02-18T17:06:47.170Z,45.20
2019-02-18T17:11:54.085Z,45.30
2019-02-18T17:17:00.223Z,45.40
2019-02-18T17:22:06.019Z,45.30
2019-02-18T17:27:14.032Z,45.40
2019-02-18T17:32:21.321Z,45.40
2019-02-18T17:37:27.536Z,45.30
2019-02-18T17:42:33.693Z,45.30
2019-02-18T17:47:40.681Z,44.90
2019-02-18T17:52:58.110Z,44.80
2019-02-18T17:58:03.150Z,44.70
2019-02-18T18:03:09.467Z,44.60
2019-02-18T18:08:15.832Z,44.60
2019-02-18T18:13:25.207Z,44.50
2019-02-18T18:18:31.201Z,44.60
2019-02-18T18:23:38.712Z,44.40
2019-02-18T18:28:43.582Z,44.30
2019-02-18T18:33:49.844Z,44.30
2019-02-18T18:38:57.183Z,44.30
2019-02-18T18:44:03.567Z,44.30
2019-02-18T18:49:10.948Z,44.30
2019-02-18T18:54:16.781Z,44.30
2019-02-18T18:59:23.768Z,44.40
2019-02-18T19:04:30.229Z,44.30
2019-02-18T19:09:38.125Z,44.30
2019-02-18T19:14:45.039Z,44.40
2019-02-18T19:19:57.667Z,44.40
2019-02-18T19:25:09.249Z,44.40
2019-02-18T19:31:00.090Z,44.40
2019-02-18T19:35:42.545Z,44.40
2019-02-18T19:40:48.487Z,44.50
2019-02-18T19:45:54.557Z,44.50
2019-02-18T19:51:04.042Z,44.60
2019-02-18T19:56:11.581Z,44.60
2019-02-18T20:01:18.303Z,44.60
2019-02-18T20:06:26.868Z,44.50
2019-02-18T20:11:59.171Z,44.60
2019-02-18T20:17:07.183Z,45.20
2019-02-18T20:22:14.561Z,44.60
2019-02-18T20:27:36.629Z,44.60
2019-02-18T20:32:43.388Z,44.50
2019-02-18T20:37:49.365Z,44.60
2019-02-18T20:42:57.457Z,44.60
2019-02-18T20:48:15.049Z,45.30
2019-02-18T20:53:23.113Z,44.60
2019-02-18T20:58:30.029Z,44.70
2019-02-18T21:03:36.719Z,44.60
2019-02-18T21:08:45.494Z,44.60
2019-02-18T21:13:52.939Z,44.60
2019-02-18T21:19:00.179Z,44.60
2019-02-18T21:24:07.643Z,44.60
2019-02-18T21:29:13.286Z,44.70
2019-02-18T21:34:52.476Z,44.70
2019-02-18T21:39:58.684Z,44.70
2019-02-18T21:45:04.837Z,44.70
2019-02-18T21:50:10.235Z,44.70
2019-02-18T21:55:17.237Z,44.80
2019-02-18T22:00:24.272Z,44.80
2019-02-18T22:05:29.904Z,44.80
2019-02-18T22:10:48.517Z,44.80
2019-02-18T22:15:55.434Z,44.80
2019-02-18T22:21:01.781Z,44.80
2019-02-18T22:26:07.570Z,44.70
2019-02-18T22:31:15.286Z,44.80
2019-02-18T22:36:20.658Z,44.80
2019-02-18T22:41:27.003Z,45.50
2019-02-18T22:46:34.932Z,44.80
2019-02-18T22:51:41.621Z,44.80
2019-02-18T22:56:49.467Z,44.80
2019-02-18T23:01:55.260Z,44.80
2019-02-18T23:07:02.691Z,44.80
2019-02-18T23:12:11.212Z,44.70
2019-02-18T23:17:17.996Z,44.70
2019-02-18T23:22:23.999Z,44.70
2019-02-18T23:27:30.082Z,44.70
2019-02-18T23:32:36.743Z,44.80
2019-02-18T23:37:44.058Z,44.80
2019-02-18T23:42:50.199Z,44.80
2019-02-18T23:47:56.389Z,44.80
2019-02-18T23:53:02.601Z,44.80
2019-02-18T23:58:08.324Z,44.80
